Time;durP1;ratioP1;P1;durP2;ratioP2;P2;SDS_P1;SDS_P2;PMS_P1;PMS_P2;Temp;Humidity;BMP_temperature;BMP_pressure;BME280_temperature;BME280_humidity;BME280_pressure;Samples;Min_cycle;Max_cycle;Signal;HPM_P1;HPM_P2
2023/11/05 00:01:15;;;;;;;0.10;0.08;;;;;;;;;;6215555;23;20012;-89
2023/11/05 00:03:44;;;;;;;0.65;0.35;;;;;;;;;;6214412;23;20008;-89
2023/11/05 00:06:19;;;;;;;0.20;0.10;;;;;;;;;;6215969;23;20071;-90
2023/11/05 00:12:02;;;;;;;0.22;0.15;;;;;;;;;;6219365;23;20013;-90
2023/11/05 00:14:49;;;;;;;1.65;0.30;;;;;;;;;;6214296;23;20013;-89
2023/11/05 00:17:24;;;;;;;0.90;0.30;;;;;;;;;;6155078;23;20013;-90
2023/11/05 00:23:00;;;;;;;0.40;0.03;;;;;;;;;;6155089;23;20049;-90
2023/11/05 00:25:26;;;;;;;0.80;0.00;;;;;;;;;;6129649;23;20016;-87
2023/11/05 00:28:15;;;;;;;0.25;0.20;;;;;;;;;;6154406;23;20014;-88
2023/11/05 00:31:13;;;;;;;;;;;;;;;;;;;;;
2023/11/05 00:33:40;;;;;;;0.00;0.00;;;;;;;;;;6155094;23;20149;-87
2023/11/05 00:36:15;;;;;;;0.40;0.08;;;;;;;;;;6154575;23;20418;-87
2023/11/05 00:39:03;;;;;;;0.20;0.17;;;;;;;;;;6155119;23;20013;-88
2023/11/05 00:41:32;;;;;;;0.05;0.05;;;;;;;;;;6179277;23;20017;-92
2023/11/05 00:43:58;;;;;;;0.00;0.00;;;;;;;;;;6215602;23;20012;-90
2023/11/05 00:46:32;;;;;;;1.02;0.10;;;;;;;;;;6217507;23;20356;-88
2023/11/05 00:49:06;;;;;;;1.00;0.10;;;;;;;;;;6218648;23;20019;-89
2023/11/05 00:51:42;;;;;;;0.80;0.10;;;;;;;;;;6217349;23;20016;-91
2023/11/05 00:54:10;;;;;;;0.13;0.10;;;;;;;;;;6217126;23;20012;-91
2023/11/05 00:56:47;;;;;;;0.20;0.10;;;;;;;;;;6213860;23;20024;-93
2023/11/05 00:59:36;;;;;;;2.28;0.10;;;;;;;;;;6219145;23;20036;-91
2023/11/05 01:02:16;;;;;;;9.85;0.20;;;;;;;;;;6217226;23;20028;-91
2023/11/05 01:08:25;;;;;;;1.48;0.22;;;;;;;;;;6218513;23;20020;-91
2023/11/05 01:14:08;;;;;;;0.10;0.00;;;;;;;;;;6042032;23;20073;-92
2023/11/05 01:17:28;;;;;;;;;;;;;;;;;;;;;
2023/11/05 01:51:30;;;;;;;;;;;;;;;;;;;;;
2023/11/05 01:54:20;;;;;;;0.10;0.10;;;;;;;;;;6246847;23;20092;-89
2023/11/05 01:56:57;;;;;;;1.55;0.08;;;;;;;;;;6246423;23;20443;-87
2023/11/05 01:59:50;;;;;;;0.10;0.00;;;;;;;;;;6227575;22;20012;-91
2023/11/05 02:02:26;;;;;;;0.00;0.00;;;;;;;;;;6184572;23;20005;-89
2023/11/05 02:05:03;;;;;;;5.57;0.03;;;;;;;;;;6160615;23;20056;-90
2023/11/05 02:07:37;;;;;;;0.30;0.15;;;;;;;;;;6155948;23;20006;-90
2023/11/05 02:10:10;;;;;;;0.00;0.00;;;;;;;;;;6130516;23;20044;-91
2023/11/05 02:12:48;;;;;;;0.10;0.10;;;;;;;;;;6130896;23;20005;-89
2023/11/05 02:15:28;;;;;;;0.00;0.00;;;;;;;;;;6131244;23;20014;-90
2023/11/05 02:18:02;;;;;;;0.00;0.00;;;;;;;;;;6131538;23;20446;-90
2023/11/05 02:20:36;;;;;;;1.38;0.50;;;;;;;;;;6130702;23;20101;-91
2023/11/05 02:23:13;;;;;;;0.00;0.00;;;;;;;;;;6131194;23;20089;-90
2023/11/05 02:25:47;;;;;;;0.38;0.10;;;;;;;;;;6155821;23;20018;-90
2023/11/05 02:28:20;;;;;;;0.00;0.00;;;;;;;;;;6160418;23;20040;-92
2023/11/05 02:30:56;;;;;;;;;;;;;;;;;;;;;
2023/11/05 02:33:40;;;;;;;0.45;0.30;;;;;;;;;;6185030;23;20092;-90
2023/11/05 02:36:38;;;;;;;0.10;0.00;;;;;;;;;;6159671;23;20045;-91
2023/11/05 02:39:12;;;;;;;2.50;0.10;;;;;;;;;;6196503;23;20052;-89
2023/11/05 02:41:59;;;;;;;0.00;0.00;;;;;;;;;;6219453;23;20042;-87
2023/11/05 02:44:45;;;;;;;0.00;0.00;;;;;;;;;;6219890;23;20326;-90
2023/11/05 02:47:41;;;;;;;0.10;0.00;;;;;;;;;;6220054;23;20067;-89
2023/11/05 02:50:34;;;;;;;0.30;0.00;;;;;;;;;;6220412;23;20040;-90
2023/11/05 02:53:01;;;;;;;0.57;0.15;;;;;;;;;;6179682;23;20451;-90
2023/11/05 02:55:27;;;;;;;2.85;0.10;;;;;;;;;;6220285;23;19996;-89
2023/11/05 03:01:03;;;;;;;0.25;0.20;;;;;;;;;;6247174;23;20023;-91
2023/11/05 03:03:56;;;;;;;1.13;0.38;;;;;;;;;;6219404;23;20058;-90
2023/11/05 03:06:22;;;;;;;;;;;;;;;;;;6221252;23;20019;-88
2023/11/05 03:09:08;;;;;;;1.13;0.00;;;;;;;;;;6220294;23;19914;-87
2023/11/05 03:11:37;;;;;;;0.30;0.10;;;;;;;;;;6221445;23;20004;-90
2023/11/05 03:17:50;;;;;;;0.70;0.00;;;;;;;;;;6184477;23;20028;-90
2023/11/05 03:23:30;;;;;;;0.08;0.03;;;;;;;;;;6216321;23;20019;-89
2023/11/05 03:26:05;;;;;;;1.67;0.50;;;;;;;;;;6216314;23;20012;-89
2023/11/05 03:28:43;;;;;;;0.30;0.03;;;;;;;;;;6216094;23;20016;-90
2023/11/05 03:31:17;;;;;;;1.80;0.63;;;;;;;;;;6216437;23;20085;-90
2023/11/05 03:42:43;;;;;;;0.55;0.10;;;;;;;;;;6216283;23;20104;-89
2023/11/05 03:45:25;;;;;;;2.53;0.55;;;;;;;;;;6232924;23;20086;-90
2023/11/05 03:47:59;;;;;;;0.08;0.08;;;;;;;;;;6221504;23;20095;-90
2023/11/05 03:50:49;;;;;;;0.17;0.10;;;;;;;;;;6220434;23;20055;-89
2023/11/05 03:53:31;;;;;;;1.05;0.30;;;;;;;;;;6245536;23;20012;-89
2023/11/05 03:56:00;;;;;;;0.00;0.00;;;;;;;;;;6221781;23;20007;-89
2023/11/05 03:58:32;;;;;;;0.00;0.00;;;;;;;;;;6221354;23;20012;-89
2023/11/05 04:01:08;;;;;;;0.00;0.00;;;;;;;;;;6221923;23;20008;-89
2023/11/05 04:03:49;;;;;;;0.00;0.00;;;;;;;;;;6221779;23;20066;-89
2023/11/05 04:06:27;;;;;;;0.00;0.00;;;;;;;;;;6221034;23;20008;-89
2023/11/05 04:14:51;;;;;;;0.10;0.10;;;;;;;;;;6248819;23;20011;-89
2023/11/05 04:17:31;;;;;;;2.10;0.65;;;;;;;;;;6222268;23;20015;-90
2023/11/05 04:20:29;;;;;;;0.43;0.25;;;;;;;;;;6222499;23;20012;-89
2023/11/05 04:23:04;;;;;;;0.32;0.20;;;;;;;;;;6222378;23;20028;-89
2023/11/05 04:25:59;;;;;;;0.00;0.00;;;;;;;;;;6222244;23;20030;-89
2023/11/05 04:28:36;;;;;;;0.00;0.00;;;;;;;;;;6185500;23;20028;-90
2023/11/05 04:34:56;;;;;;;1.85;0.10;;;;;;;;;;6126188;23;20013;-89
2023/11/05 04:41:06;;;;;;;;;;;;;;;;;;;;;
2023/11/05 04:44:07;;;;;;;3.55;0.40;;;;;;;;;;6248296;23;20088;-89
2023/11/05 04:49:42;;;;;;;0.40;0.10;;;;;;;;;;6248100;23;20088;-89
2023/11/05 04:52:15;;;;;;;0.35;0.10;;;;;;;;;;6221951;23;20297;-89
2023/11/05 04:54:46;;;;;;;0.10;0.00;;;;;;;;;;6185317;23;20012;-89
2023/11/05 05:00:30;;;;;;;0.00;0.00;;;;;;;;;;6185463;23;20084;-90
2023/11/05 05:02:57;;;;;;;0.60;0.20;;;;;;;;;;6186060;23;20014;-88
2023/11/05 05:08:11;;;;;;;0.00;0.00;;;;;;;;;;6214877;23;20095;-89
2023/11/05 05:10:40;;;;;;;1.83;0.70;;;;;;;;;;6215125;23;20071;-89
2023/11/05 05:13:06;;;;;;;0.40;0.03;;;;;;;;;;6215232;23;20091;-89
2023/11/05 05:15:38;;;;;;;0.00;0.00;;;;;;;;;;6215549;23;20087;-89
2023/11/05 05:18:04;;;;;;;1.40;0.30;;;;;;;;;;6215618;23;20087;-89
2023/11/05 05:20:30;;;;;;;0.00;0.00;;;;;;;;;;6220834;23;20011;-89
2023/11/05 05:22:56;;;;;;;2.50;0.30;;;;;;;;;;6221045;23;20012;-90
2023/11/05 05:25:22;;;;;;;0.00;0.00;;;;;;;;;;6220649;23;20015;-89
2023/11/05 05:27:51;;;;;;;0.85;0.45;;;;;;;;;;6221008;23;20087;-89
2023/11/05 05:30:18;;;;;;;0.00;0.00;;;;;;;;;;6220675;23;20016;-89
2023/11/05 05:32:44;;;;;;;3.03;0.32;;;;;;;;;;6220488;23;20004;-88
2023/11/05 05:35:10;;;;;;;0.25;0.10;;;;;;;;;;6220743;23;20059;-89
2023/11/05 05:37:36;;;;;;;0.30;0.30;;;;;;;;;;6220399;23;20480;-89
2023/11/05 05:40:05;;;;;;;0.05;0.03;;;;;;;;;;6221586;23;20015;-89
2023/11/05 05:42:40;;;;;;;0.03;0.00;;;;;;;;;;6220872;23;19996;-90
2023/11/05 05:45:06;;;;;;;0.08;0.00;;;;;;;;;;6220679;23;20012;-89
2023/11/05 05:47:37;;;;;;;0.00;0.00;;;;;;;;;;6220901;23;20015;-88
2023/11/05 05:50:03;;;;;;;0.63;0.20;;;;;;;;;;6215555;23;20005;-88
2023/11/05 05:52:29;;;;;;;0.00;0.00;;;;;;;;;;6215989;23;20005;-88
2023/11/05 05:54:56;;;;;;;0.65;0.28;;;;;;;;;;6215634;23;20005;-88
2023/11/05 05:57:24;;;;;;;0.00;0.00;;;;;;;;;;6215784;23;20059;-88
2023/11/05 05:59:51;;;;;;;0.00;0.00;;;;;;;;;;6215814;23;20000;-89
2023/11/05 06:02:20;;;;;;;0.52;0.00;;;;;;;;;;6215466;23;20357;-88
2023/11/05 06:04:47;;;;;;;0.00;0.00;;;;;;;;;;6215230;23;20421;-89
2023/11/05 06:07:13;;;;;;;0.00;0.00;;;;;;;;;;6215124;23;20055;-88
2023/11/05 06:09:39;;;;;;;0.00;0.00;;;;;;;;;;6215385;23;20009;-88
2023/11/05 06:12:05;;;;;;;2.25;0.08;;;;;;;;;;6214926;23;20008;-88
2023/11/05 06:14:31;;;;;;;0.30;0.10;;;;;;;;;;6215350;23;20467;-87
2023/11/05 06:16:57;;;;;;;1.45;0.50;;;;;;;;;;6214645;23;20016;-88
2023/11/05 06:19:23;;;;;;;0.10;0.00;;;;;;;;;;6215355;23;20317;-89
2023/11/05 06:21:49;;;;;;;0.00;0.00;;;;;;;;;;6214759;23;20007;-88
2023/11/05 06:24:15;;;;;;;0.00;0.00;;;;;;;;;;6215031;23;20051;-87
2023/11/05 06:26:44;;;;;;;0.00;0.00;;;;;;;;;;6215388;23;20009;-87
2023/11/05 06:29:10;;;;;;;0.10;0.00;;;;;;;;;;6213711;23;20020;-88
2023/11/05 06:31:36;;;;;;;0.60;0.10;;;;;;;;;;6212413;23;20008;-87
2023/11/05 06:34:02;;;;;;;0.20;0.05;;;;;;;;;;6213332;23;20320;-87
2023/11/05 06:36:28;;;;;;;0.20;0.10;;;;;;;;;;6213375;23;20004;-87
2023/11/05 06:38:54;;;;;;;0.00;0.00;;;;;;;;;;6213713;23;20031;-87
2023/11/05 06:41:20;;;;;;;0.00;0.00;;;;;;;;;;6213530;23;20004;-86
2023/11/05 06:43:46;;;;;;;0.00;0.00;;;;;;;;;;6213788;23;20008;-86
2023/11/05 06:46:12;;;;;;;0.00;0.00;;;;;;;;;;6214033;23;20017;-87
2023/11/05 06:48:38;;;;;;;0.00;0.00;;;;;;;;;;6214036;23;20021;-86
2023/11/05 06:51:04;;;;;;;0.03;0.03;;;;;;;;;;6214239;23;20005;-87
2023/11/05 06:53:31;;;;;;;0.00;0.00;;;;;;;;;;6213455;23;20013;-86
2023/11/05 06:55:56;;;;;;;0.43;0.10;;;;;;;;;;6213716;23;20092;-85
2023/11/05 06:58:22;;;;;;;0.03;0.00;;;;;;;;;;6215278;23;20024;-85
2023/11/05 07:00:49;;;;;;;0.10;0.08;;;;;;;;;;6215406;23;20008;-88
2023/11/05 07:03:16;;;;;;;0.00;0.00;;;;;;;;;;6214280;23;20020;-87
2023/11/05 07:05:42;;;;;;;0.00;0.00;;;;;;;;;;6214326;23;20450;-87
2023/11/05 07:08:08;;;;;;;0.15;0.05;;;;;;;;;;6216353;23;20013;-86
2023/11/05 07:10:34;;;;;;;0.00;0.00;;;;;;;;;;6215899;23;20416;-88
2023/11/05 07:13:00;;;;;;;0.10;0.08;;;;;;;;;;6216970;23;20071;-89
2023/11/05 07:15:26;;;;;;;0.30;0.10;;;;;;;;;;6216916;23;20012;-88
2023/11/05 07:17:53;;;;;;;0.08;0.00;;;;;;;;;;6217566;23;20009;-88
2023/11/05 07:20:19;;;;;;;0.00;0.00;;;;;;;;;;6217300;23;20100;-88
2023/11/05 07:22:46;;;;;;;0.00;0.00;;;;;;;;;;6217072;23;20327;-89
2023/11/05 07:25:12;;;;;;;0.10;0.00;;;;;;;;;;6216760;23;20013;-88
2023/11/05 07:27:38;;;;;;;0.90;0.25;;;;;;;;;;6217225;23;20012;-89
2023/11/05 07:30:05;;;;;;;1.70;0.40;;;;;;;;;;6217419;23;20365;-89
2023/11/05 07:32:31;;;;;;;2.33;0.80;;;;;;;;;;6217266;23;20043;-89
2023/11/05 07:34:57;;;;;;;0.20;0.15;;;;;;;;;;6217103;23;20009;-89
2023/11/05 07:37:25;;;;;;;0.00;0.00;;;;;;;;;;6216903;23;20031;-88
2023/11/05 07:39:51;;;;;;;1.17;0.40;;;;;;;;;;6217325;23;20031;-89
2023/11/05 07:42:17;;;;;;;0.55;0.25;;;;;;;;;;6217367;23;20012;-88
2023/11/05 07:44:43;;;;;;;0.28;0.20;;;;;;;;;;6215501;23;20019;-88
2023/11/05 07:47:09;;;;;;;0.00;0.00;;;;;;;;;;6216358;23;20009;-88
2023/11/05 07:49:35;;;;;;;0.00;0.00;;;;;;;;;;6217546;23;20019;-88
2023/11/05 07:52:01;;;;;;;0.10;0.00;;;;;;;;;;6216875;23;20036;-88
2023/11/05 07:54:27;;;;;;;0.93;0.10;;;;;;;;;;6216805;23;20009;-89
2023/11/05 07:56:54;;;;;;;0.22;0.08;;;;;;;;;;6216817;23;20432;-89
2023/11/05 07:59:20;;;;;;;0.20;0.00;;;;;;;;;;6216902;23;20017;-89
2023/11/05 08:01:46;;;;;;;0.05;0.03;;;;;;;;;;6216593;23;20031;-87
2023/11/05 08:04:12;;;;;;;0.30;0.10;;;;;;;;;;6216033;23;20432;-87
2023/11/05 08:06:38;;;;;;;0.43;0.00;;;;;;;;;;6215460;23;20332;-86
2023/11/05 08:09:04;;;;;;;2.45;0.68;;;;;;;;;;6213198;23;20139;-88
2023/11/05 08:11:30;;;;;;;0.00;0.00;;;;;;;;;;6213466;23;20012;-87
2023/11/05 08:14:01;;;;;;;0.00;0.00;;;;;;;;;;6215943;23;20040;-89
2023/11/05 08:16:27;;;;;;;0.00;0.00;;;;;;;;;;6215465;23;20008;-89
2023/11/05 08:18:53;;;;;;;0.32;0.10;;;;;;;;;;6213536;23;20027;-86
2023/11/05 08:21:21;;;;;;;0.00;0.00;;;;;;;;;;6214932;23;20017;-88
2023/11/05 08:23:47;;;;;;;0.00;0.00;;;;;;;;;;6217109;23;20004;-89
2023/11/05 08:26:19;;;;;;;5.22;0.20;;;;;;;;;;6217596;23;20050;-90
2023/11/05 08:28:45;;;;;;;0.25;0.10;;;;;;;;;;6215153;23;20016;-88
2023/11/05 08:31:13;;;;;;;0.75;0.10;;;;;;;;;;6213270;23;20013;-86
2023/11/05 08:33:40;;;;;;;1.15;0.47;;;;;;;;;;6212149;23;20030;-90
2023/11/05 08:36:06;;;;;;;0.00;0.00;;;;;;;;;;6214461;23;20088;-91
2023/11/05 08:38:32;;;;;;;0.43;0.32;;;;;;;;;;6212776;23;20344;-91
2023/11/05 08:40:59;;;;;;;0.00;0.00;;;;;;;;;;6211052;23;20321;-92
2023/11/05 08:43:25;;;;;;;0.00;0.00;;;;;;;;;;6211253;23;20009;-90
2023/11/05 08:45:51;;;;;;;0.15;0.05;;;;;;;;;;6211992;23;20013;-91
2023/11/05 08:48:23;;;;;;;0.20;0.10;;;;;;;;;;6211625;23;20341;-92
2023/11/05 08:50:51;;;;;;;1.00;0.20;;;;;;;;;;6212274;23;20016;-93
2023/11/05 08:53:26;;;;;;;2.13;0.22;;;;;;;;;;6212600;23;20384;-88
2023/11/05 08:55:53;;;;;;;5.63;0.20;;;;;;;;;;6214824;23;20017;-91
2023/11/05 08:58:19;;;;;;;0.90;0.60;;;;;;;;;;6216373;23;20005;-91
2023/11/05 09:00:45;;;;;;;1.08;0.30;;;;;;;;;;6215420;23;20084;-90
2023/11/05 09:03:29;;;;;;;0.00;0.00;;;;;;;;;;6215128;23;20008;-90
2023/11/05 09:05:55;;;;;;;0.00;0.00;;;;;;;;;;6215444;23;20012;-90
2023/11/05 09:08:37;;;;;;;;;;;;;;;;;;;;;
2023/11/05 09:11:04;;;;;;;0.17;0.03;;;;;;;;;;6211497;23;20088;-89
2023/11/05 09:13:31;;;;;;;1.77;0.35;;;;;;;;;;6216087;23;20028;-90
2023/11/05 09:16:22;;;;;;;1.00;0.52;;;;;;;;;;6216691;23;20443;-93
2023/11/05 09:18:51;;;;;;;0.25;0.10;;;;;;;;;;6214629;23;20029;-91
2023/11/05 09:22:00;;;;;;;0.00;0.00;;;;;;;;;;6214495;23;20062;-88
2023/11/05 09:33:37;;;;;;;0.00;0.00;;;;;;;;;;6214175;22;20472;-89
2023/11/05 09:39:18;;;;;;;0.00;0.00;;;;;;;;;;6086894;23;20083;-89
2023/11/05 09:41:44;;;;;;;0.63;0.10;;;;;;;;;;6073187;23;20085;-89
2023/11/05 09:44:10;;;;;;;0.10;0.05;;;;;;;;;;6126138;23;20013;-89
2023/11/05 09:46:37;;;;;;;0.20;0.05;;;;;;;;;;6184612;23;20100;-87
2023/11/05 09:49:04;;;;;;;0.03;0.03;;;;;;;;;;6184524;23;20475;-88
2023/11/05 09:51:30;;;;;;;0.00;0.00;;;;;;;;;;6185189;23;20144;-88
2023/11/05 09:53:56;;;;;;;0.65;0.38;;;;;;;;;;6183754;23;20020;-87
2023/11/05 09:56:24;;;;;;;0.10;0.03;;;;;;;;;;6181843;23;20020;-86
2023/11/05 09:58:50;;;;;;;0.17;0.10;;;;;;;;;;6182857;23;20009;-88
2023/11/05 10:01:16;;;;;;;0.08;0.08;;;;;;;;;;6182636;23;20024;-88
2023/11/05 10:03:42;;;;;;;0.93;0.40;;;;;;;;;;6182867;23;20072;-87
2023/11/05 10:06:15;;;;;;;0.20;0.10;;;;;;;;;;6187932;23;20029;-90
2023/11/05 10:08:42;;;;;;;0.00;0.00;;;;;;;;;;6190266;23;20067;-87
2023/11/05 10:11:08;;;;;;;0.30;0.03;;;;;;;;;;6190720;23;20016;-88
2023/11/05 10:13:35;;;;;;;0.30;0.20;;;;;;;;;;6189559;23;20009;-87
2023/11/05 10:16:01;;;;;;;0.15;0.10;;;;;;;;;;6189774;23;20012;-88
2023/11/05 10:18:27;;;;;;;0.10;0.00;;;;;;;;;;6186131;23;20009;-86
2023/11/05 10:20:58;;;;;;;1.30;0.17;;;;;;;;;;6187943;23;20428;-88
2023/11/05 10:23:25;;;;;;;0.00;0.00;;;;;;;;;;6185610;23;20425;-89
2023/11/05 10:25:51;;;;;;;0.80;0.20;;;;;;;;;;6184778;23;20019;-87
2023/11/05 10:28:18;;;;;;;0.20;0.13;;;;;;;;;;6184721;23;20016;-90
2023/11/05 10:30:46;;;;;;;0.10;0.10;;;;;;;;;;6186174;23;20062;-91
2023/11/05 10:33:15;;;;;;;0.63;0.30;;;;;;;;;;6190059;23;20008;-91
2023/11/05 10:35:41;;;;;;;0.80;0.22;;;;;;;;;;6189371;23;20012;-91
2023/11/05 10:38:10;;;;;;;0.35;0.30;;;;;;;;;;6189270;23;20051;-91
2023/11/05 10:40:37;;;;;;;0.20;0.10;;;;;;;;;;6150486;23;20017;-90
2023/11/05 10:43:04;;;;;;;0.00;0.00;;;;;;;;;;6154092;23;20017;-91
2023/11/05 10:45:31;;;;;;;0.00;0.00;;;;;;;;;;6152031;23;20136;-90
2023/11/05 10:48:04;;;;;;;0.08;0.00;;;;;;;;;;6150890;23;20093;-92
2023/11/05 10:50:30;;;;;;;;;;;;;;;;;;6154722;23;20018;-91
2023/11/05 10:52:58;;;;;;;0.05;0.00;;;;;;;;;;6154141;23;19904;-90
2023/11/05 10:55:32;;;;;;;0.22;0.10;;;;;;;;;;6155859;23;20021;-89
2023/11/05 10:57:59;;;;;;;0.00;0.00;;;;;;;;;;6156205;23;20009;-88
2023/11/05 11:00:51;;;;;;;0.00;0.00;;;;;;;;;;6154718;23;20018;-89
2023/11/05 11:06:42;;;;;;;0.10;0.10;;;;;;;;;;6186348;23;20020;-89
2023/11/05 11:09:11;;;;;;;1.58;0.45;;;;;;;;;;6160864;23;20044;-90
2023/11/05 11:11:39;;;;;;;0.93;0.47;;;;;;;;;;6160241;23;20017;-89
2023/11/05 11:14:05;;;;;;;0.05;0.00;;;;;;;;;;6160600;23;20083;-89
2023/11/05 11:16:32;;;;;;;0.20;0.10;;;;;;;;;;6160118;23;20032;-89
2023/11/05 11:19:36;;;;;;;0.10;0.10;;;;;;;;;;6159917;23;20421;-90
2023/11/05 11:22:02;;;;;;;0.00;0.00;;;;;;;;;;6097634;23;20018;-88
2023/11/05 11:24:28;;;;;;;0.75;0.20;;;;;;;;;;6143430;23;20088;-87
2023/11/05 11:26:54;;;;;;;0.25;0.15;;;;;;;;;;6163261;23;20023;-87
2023/11/05 11:29:21;;;;;;;0.03;0.03;;;;;;;;;;6191175;23;20028;-88
2023/11/05 11:31:47;;;;;;;0.38;0.20;;;;;;;;;;6191073;23;20108;-90
2023/11/05 11:34:28;;;;;;;2.85;0.35;;;;;;;;;;6191633;23;20021;-92
2023/11/05 11:37:22;;;;;;;1.60;0.35;;;;;;;;;;6191366;23;20032;-91
2023/11/05 11:39:50;;;;;;;1.10;0.32;;;;;;;;;;6176094;23;20013;-91
2023/11/05 11:42:17;;;;;;;0.57;0.25;;;;;;;;;;6185722;23;20048;-88
2023/11/05 11:44:43;;;;;;;0.22;0.20;;;;;;;;;;6190937;23;20036;-89
2023/11/05 11:47:09;;;;;;;0.80;0.60;;;;;;;;;;6190191;23;20047;-87
2023/11/05 11:49:35;;;;;;;0.10;0.10;;;;;;;;;;6190256;23;20004;-88
2023/11/05 11:52:04;;;;;;;0.85;0.40;;;;;;;;;;6190158;23;20019;-87
2023/11/05 11:54:30;;;;;;;0.28;0.25;;;;;;;;;;6189377;23;20016;-89
2023/11/05 11:56:56;;;;;;;2.08;0.10;;;;;;;;;;6189610;23;20012;-88
2023/11/05 11:59:24;;;;;;;0.73;0.45;;;;;;;;;;6189167;23;20092;-87
2023/11/05 12:01:54;;;;;;;0.52;0.35;;;;;;;;;;6186975;23;20079;-88
2023/11/05 12:04:21;;;;;;;0.20;0.10;;;;;;;;;;6186323;23;20025;-87
2023/11/05 12:06:48;;;;;;;0.63;0.32;;;;;;;;;;6186649;23;20111;-86
2023/11/05 12:09:21;;;;;;;3.42;0.57;;;;;;;;;;6187842;23;20013;-88
2023/11/05 12:11:49;;;;;;;7.18;0.50;;;;;;;;;;6188122;23;20440;-87
2023/11/05 12:14:21;;;;;;;0.30;0.20;;;;;;;;;;6188769;23;20016;-89
2023/11/05 12:16:47;;;;;;;;;;;;;;;;;;6190556;23;20008;-88
2023/11/05 12:19:14;;;;;;;0.55;0.30;;;;;;;;;;6215065;23;20632;-89
2023/11/05 12:21:41;;;;;;;1.98;0.40;;;;;;;;;;6190246;23;20432;-89
2023/11/05 12:24:09;;;;;;;0.65;0.38;;;;;;;;;;6190927;23;20039;-90
2023/11/05 12:26:42;;;;;;;0.00;0.00;;;;;;;;;;6191601;23;20020;-89
2023/11/05 12:29:14;;;;;;;0.63;0.40;;;;;;;;;;6190319;23;20005;-89
2023/11/05 12:31:45;;;;;;;1.10;0.20;;;;;;;;;;6190589;23;20017;-89
2023/11/05 12:34:11;;;;;;;0.22;0.20;;;;;;;;;;6189006;23;20031;-89
2023/11/05 12:36:37;;;;;;;1.02;0.20;;;;;;;;;;6191187;23;20005;-88
2023/11/05 12:39:03;;;;;;;0.32;0.20;;;;;;;;;;6191054;23;20009;-89
2023/11/05 12:41:31;;;;;;;0.20;0.10;;;;;;;;;;6191231;23;20086;-90
2023/11/05 12:43:57;;;;;;;0.13;0.03;;;;;;;;;;6191364;23;20013;-89
2023/11/05 12:46:23;;;;;;;0.40;0.30;;;;;;;;;;6191524;23;20008;-90
2023/11/05 12:48:49;;;;;;;2.78;1.23;;;;;;;;;;6191250;23;20012;-89
2023/11/05 12:51:15;;;;;;;1.95;0.73;;;;;;;;;;6190789;23;20390;-90
2023/11/05 12:53:41;;;;;;;2.85;0.50;;;;;;;;;;6190705;23;20013;-89
2023/11/05 12:56:11;;;;;;;4.47;0.75;;;;;;;;;;6191120;23;19997;-90
2023/11/05 12:58:40;;;;;;;1.17;0.75;;;;;;;;;;6189721;23;20012;-89
2023/11/05 13:01:06;;;;;;;2.47;0.20;;;;;;;;;;6189131;23;20036;-88
2023/11/05 13:03:32;;;;;;;1.40;0.93;;;;;;;;;;6187581;23;20013;-87
2023/11/05 13:05:59;;;;;;;1.27;0.70;;;;;;;;;;6186302;23;20013;-88
2023/11/05 13:08:25;;;;;;;1.85;0.70;;;;;;;;;;6186498;23;20023;-88
2023/11/05 13:10:52;;;;;;;1.65;0.88;;;;;;;;;;6184857;23;20043;-88
2023/11/05 13:13:19;;;;;;;1.38;0.50;;;;;;;;;;6185608;23;20000;-87
2023/11/05 13:15:45;;;;;;;2.45;0.43;;;;;;;;;;6212020;23;20004;-87
2023/11/05 13:18:11;;;;;;;1.52;0.82;;;;;;;;;;6185144;23;20004;-88
2023/11/05 13:20:37;;;;;;;0.63;0.40;;;;;;;;;;6185217;23;20119;-88
2023/11/05 13:23:04;;;;;;;0.93;0.40;;;;;;;;;;6185037;23;20012;-88
2023/11/05 13:25:31;;;;;;;6.70;0.90;;;;;;;;;;6184775;23;20196;-88
2023/11/05 13:27:59;;;;;;;0.57;0.38;;;;;;;;;;6185073;23;20036;-88
2023/11/05 13:30:25;;;;;;;2.00;0.60;;;;;;;;;;6185162;23;20415;-89
2023/11/05 13:32:51;;;;;;;0.40;0.10;;;;;;;;;;6184863;23;20009;-89
2023/11/05 13:35:20;;;;;;;2.92;1.15;;;;;;;;;;6184781;23;20127;-90
2023/11/05 13:37:46;;;;;;;1.92;1.00;;;;;;;;;;6186040;23;20004;-89
2023/11/05 13:40:13;;;;;;;4.07;1.70;;;;;;;;;;6184693;23;20020;-89
2023/11/05 13:42:39;;;;;;;2.95;0.75;;;;;;;;;;6185566;23;20019;-90
2023/11/05 13:45:08;;;;;;;1.25;0.52;;;;;;;;;;6186085;23;20017;-89
2023/11/05 13:47:34;;;;;;;1.23;0.82;;;;;;;;;;6186391;23;20020;-90
2023/11/05 13:50:00;;;;;;;1.45;0.38;;;;;;;;;;6182041;23;20017;-89
2023/11/05 13:52:26;;;;;;;1.40;0.40;;;;;;;;;;6182097;23;20089;-90
2023/11/05 13:54:53;;;;;;;3.15;1.20;;;;;;;;;;6182222;23;20058;-89
2023/11/05 13:57:19;;;;;;;0.10;0.10;;;;;;;;;;6183010;23;20005;-91
2023/11/05 14:00:07;;;;;;;3.88;0.50;;;;;;;;;;6181956;23;20058;-89
2023/11/05 14:02:36;;;;;;;2.78;1.27;;;;;;;;;;6181296;23;20028;-88
2023/11/05 14:05:02;;;;;;;0.50;0.20;;;;;;;;;;6180232;23;20063;-88
2023/11/05 14:07:31;;;;;;;0.95;0.50;;;;;;;;;;6182607;23;20013;-90
2023/11/05 14:09:57;;;;;;;0.50;0.40;;;;;;;;;;6181419;23;20017;-88
2023/11/05 14:12:23;;;;;;;1.45;0.63;;;;;;;;;;6180989;23;20015;-88
2023/11/05 14:14:50;;;;;;;0.95;0.30;;;;;;;;;;6182687;23;20436;-88
2023/11/05 14:17:56;;;;;;;;;;;;;;;;;;;;;
2023/11/05 14:20:23;;;;;;;0.50;0.32;;;;;;;;;;6153919;23;20009;-90
2023/11/05 14:25:22;;;;;;;1.30;0.50;;;;;;;;;;6276533;22;20443;-91
2023/11/05 14:27:51;;;;;;;0.50;0.20;;;;;;;;;;6247968;22;20019;-92
2023/11/05 14:30:17;;;;;;;0.47;0.20;;;;;;;;;;6246610;22;20715;-86
2023/11/05 14:32:43;;;;;;;0.10;0.10;;;;;;;;;;6245536;22;20473;-89
2023/11/05 14:35:12;;;;;;;0.20;0.15;;;;;;;;;;6246099;22;19999;-92
2023/11/05 14:37:38;;;;;;;0.00;0.00;;;;;;;;;;6245878;22;20130;-88
2023/11/05 14:40:09;;;;;;;0.28;0.10;;;;;;;;;;6245180;22;20023;-89
2023/11/05 14:42:35;;;;;;;1.25;0.10;;;;;;;;;;6248453;22;20047;-91
2023/11/05 14:45:01;;;;;;;0.10;0.08;;;;;;;;;;6247347;22;20323;-91
2023/11/05 14:47:27;;;;;;;0.30;0.20;;;;;;;;;;6246100;22;20087;-92
2023/11/05 14:49:53;;;;;;;0.00;0.00;;;;;;;;;;6248358;22;20327;-89
2023/11/05 14:52:38;;;;;;;0.15;0.10;;;;;;;;;;6250440;22;20011;-94
2023/11/05 14:57:51;;;;;;;1.17;0.10;;;;;;;;;;6271485;22;20019;-92
2023/11/05 15:08:41;;;;;;;0.00;0.00;;;;;;;;;;6242394;23;20028;-90
2023/11/05 15:11:08;;;;;;;0.47;0.43;;;;;;;;;;6215485;23;20008;-90
2023/11/05 15:13:34;;;;;;;0.82;0.38;;;;;;;;;;6216334;23;20020;-90
2023/11/05 15:16:03;;;;;;;0.00;0.00;;;;;;;;;;6220627;23;20004;-90
2023/11/05 15:18:33;;;;;;;0.30;0.10;;;;;;;;;;6222015;23;20015;-91
2023/11/05 15:20:59;;;;;;;0.00;0.00;;;;;;;;;;6221168;23;20019;-91
2023/11/05 15:23:29;;;;;;;0.40;0.25;;;;;;;;;;6220074;23;20040;-91
2023/11/05 15:25:58;;;;;;;0.25;0.00;;;;;;;;;;6219762;23;20012;-89
2023/11/05 15:28:26;;;;;;;1.25;0.90;;;;;;;;;;6219568;23;20004;-88
2023/11/05 15:30:53;;;;;;;2.08;0.52;;;;;;;;;;6217460;23;20309;-90
2023/11/05 15:33:24;;;;;;;0.15;0.03;;;;;;;;;;6218740;23;20408;-89
2023/11/05 15:35:50;;;;;;;0.10;0.00;;;;;;;;;;6217991;23;20000;-90
2023/11/05 15:38:16;;;;;;;0.30;0.20;;;;;;;;;;6217989;23;20009;-89
2023/11/05 15:40:43;;;;;;;0.00;0.00;;;;;;;;;;6219989;23;20098;-89
2023/11/05 15:43:10;;;;;;;0.10;0.00;;;;;;;;;;6218434;23;20012;-88
2023/11/05 15:45:36;;;;;;;0.35;0.10;;;;;;;;;;6217101;23;20103;-90
2023/11/05 15:48:02;;;;;;;0.00;0.00;;;;;;;;;;6219020;23;20008;-89
2023/11/05 15:50:28;;;;;;;0.20;0.15;;;;;;;;;;6220175;23;20436;-89
2023/11/05 15:52:54;;;;;;;0.22;0.10;;;;;;;;;;6216719;23;20062;-90
2023/11/05 15:55:20;;;;;;;0.03;0.00;;;;;;;;;;6217110;23;20360;-89
2023/11/05 15:57:48;;;;;;;1.27;0.40;;;;;;;;;;6220178;23;20097;-89
2023/11/05 16:00:17;;;;;;;0.10;0.10;;;;;;;;;;6228112;23;20016;-89
2023/11/05 16:02:43;;;;;;;0.90;0.32;;;;;;;;;;6219593;23;20393;-88
2023/11/05 16:05:12;;;;;;;0.28;0.22;;;;;;;;;;6218970;23;20046;-87
2023/11/05 16:07:40;;;;;;;6.00;1.88;;;;;;;;;;6220100;23;20024;-90
2023/11/05 16:10:08;;;;;;;0.95;0.73;;;;;;;;;;6217336;23;20107;-88
2023/11/05 16:12:40;;;;;;;4.28;0.63;;;;;;;;;;6217500;23;20336;-87
2023/11/05 16:15:07;;;;;;;0.43;0.10;;;;;;;;;;6216269;23;20027;-90
2023/11/05 16:17:33;;;;;;;0.15;0.00;;;;;;;;;;6216149;23;20012;-89
2023/11/05 16:19:59;;;;;;;0.10;0.10;;;;;;;;;;6216140;23;20479;-89
2023/11/05 16:22:26;;;;;;;1.15;0.30;;;;;;;;;;6218444;23;20039;-89
2023/11/05 16:24:52;;;;;;;0.70;0.52;;;;;;;;;;6220499;23;20171;-90
2023/11/05 16:27:18;;;;;;;0.50;0.32;;;;;;;;;;6228008;23;20005;-89
2023/11/05 16:29:46;;;;;;;0.60;0.30;;;;;;;;;;6219212;23;20062;-89
2023/11/05 16:32:15;;;;;;;1.58;1.02;;;;;;;;;;6216572;23;20009;-90
2023/11/05 16:34:41;;;;;;;1.15;0.50;;;;;;;;;;6217745;23;20647;-88
2023/11/05 16:37:08;;;;;;;3.88;1.83;;;;;;;;;;6213910;23;20012;-89
2023/11/05 16:39:35;;;;;;;1.55;0.80;;;;;;;;;;6215705;23;20020;-89
2023/11/05 16:42:01;;;;;;;1.67;0.47;;;;;;;;;;6216029;23;20245;-89
2023/11/05 16:44:28;;;;;;;1.02;0.65;;;;;;;;;;6216400;23;20050;-91
2023/11/05 16:46:54;;;;;;;4.03;0.73;;;;;;;;;;6219235;23;20324;-91
2023/11/05 16:49:24;;;;;;;3.53;0.88;;;;;;;;;;6219111;23;20031;-91
2023/11/05 16:51:51;;;;;;;0.20;0.13;;;;;;;;;;6216764;23;20471;-91
2023/11/05 16:54:17;;;;;;;5.68;0.40;;;;;;;;;;6217511;23;20020;-90
2023/11/05 16:56:49;;;;;;;0.22;0.20;;;;;;;;;;6217656;23;20320;-88
2023/11/05 16:59:16;;;;;;;3.40;0.50;;;;;;;;;;6217364;23;20015;-86
2023/11/05 17:01:42;;;;;;;1.23;0.50;;;;;;;;;;6216431;23;20020;-90
2023/11/05 17:04:13;;;;;;;0.70;0.32;;;;;;;;;;6216004;23;20058;-89